sensor_id;sensor_type;location;lat;lon;timestamp;temperature;humidity
2855;DHT22;1435;49.472;10.940;2023-07-24T00:03:06;20.80;99.80
2855;DHT22;1435;49.472;10.940;2023-07-24T00:08:10;20.60;98.40
2855;DHT22;1435;49.472;10.940;2023-07-24T00:13:11;20.60;99.50
2855;DHT22;1435;49.472;10.940;2023-07-24T00:18:13;20.60;99.90
2855;DHT22;1435;49.472;10.940;2023-07-24T00:23:16;20.60;99.90
2855;DHT22;1435;49.472;10.940;2023-07-24T00:28:18;20.60;99.90
2855;DHT22;1435;49.472;10.940;2023-07-24T00:33:20;20.60;99.90
2855;DHT22;1435;49.472;10.940;2023-07-24T00:38:23;20.40;99.90
2855;DHT22;1435;49.472;10.940;2023-07-24T00:43:25;20.30;99.90
2855;DHT22;1435;49.472;10.940;2023-07-24T00:48:27;20.30;99.90
2855;DHT22;1435;49.472;10.940;2023-07-24T00:53:30;20.30;99.90
2855;DHT22;1435;49.472;10.940;2023-07-24T00:58:33;20.30;99.90
2855;DHT22;1435;49.472;10.940;2023-07-24T01:03:35;20.20;99.90
2855;DHT22;1435;49.472;10.940;2023-07-24T01:08:39;20.10;99.90
2855;DHT22;1435;49.472;10.940;2023-07-24T01:13:44;20.10;99.90
2855;DHT22;1435;49.472;10.940;2023-07-24T01:18:51;20.00;99.90
2855;DHT22;1435;49.472;10.940;2023-07-24T01:24:01;20.00;99.90
2855;DHT22;1435;49.472;10.940;2023-07-24T01:29:07;19.90;99.90
2855;DHT22;1435;49.472;10.940;2023-07-24T01:34:09;19.90;99.90
2855;DHT22;1435;49.472;10.940;2023-07-24T01:39:11;19.80;99.90
2855;DHT22;1435;49.472;10.940;2023-07-24T01:44:14;19.80;99.90
2855;DHT22;1435;49.472;10.940;2023-07-24T01:49:16;19.70;99.90
2855;DHT22;1435;49.472;10.940;2023-07-24T01:54:17;19.70;99.90
2855;DHT22;1435;49.472;10.940;2023-07-24T01:59:20;19.70;99.90
2855;DHT22;1435;49.472;10.940;2023-07-24T02:04:22;19.60;99.90
2855;DHT22;1435;49.472;10.940;2023-07-24T02:09:24;19.60;99.90
2855;DHT22;1435;49.472;10.940;2023-07-24T02:14:27;19.60;99.90
2855;DHT22;1435;49.472;10.940;2023-07-24T02:19:28;19.50;99.90
2855;DHT22;1435;49.472;10.940;2023-07-24T02:24:30;19.50;99.90
2855;DHT22;1435;49.472;10.940;2023-07-24T02:29:33;19.40;99.90
2855;DHT22;1435;49.472;10.940;2023-07-24T02:34:36;19.30;99.90
2855;DHT22;1435;49.472;10.940;2023-07-24T02:39:37;19.30;99.90
2855;DHT22;1435;49.472;10.940;2023-07-24T02:44:40;19.30;99.90
2855;DHT22;1435;49.472;10.940;2023-07-24T02:49:42;19.20;99.90
2855;DHT22;1435;49.472;10.940;2023-07-24T02:54:44;19.20;99.90
2855;DHT22;1435;49.472;10.940;2023-07-24T02:59:47;19.20;99.90
2855;DHT22;1435;49.472;10.940;2023-07-24T03:04:49;19.20;99.90
2855;DHT22;1435;49.472;10.940;2023-07-24T03:09:51;19.10;99.90
2855;DHT22;1435;49.472;10.940;2023-07-24T03:14:54;19.10;99.90
2855;DHT22;1435;49.472;10.940;2023-07-24T03:19:55;19.10;99.90
2855;DHT22;1435;49.472;10.940;2023-07-24T03:24:57;19.10;99.90
2855;DHT22;1435;49.472;10.940;2023-07-24T03:30:00;19.00;99.90
2855;DHT22;1435;49.472;10.940;2023-07-24T03:35:03;19.00;99.90
2855;DHT22;1435;49.472;10.940;2023-07-24T03:40:06;19.00;99.90
2855;DHT22;1435;49.472;10.940;2023-07-24T03:45:09;19.00;99.90
2855;DHT22;1435;49.472;10.940;2023-07-24T03:50:11;19.00;99.90
2855;DHT22;1435;49.472;10.940;2023-07-24T03:55:13;18.90;99.90
2855;DHT22;1435;49.472;10.940;2023-07-24T04:00:16;18.90;99.90
2855;DHT22;1435;49.472;10.940;2023-07-24T04:05:19;18.90;99.90
2855;DHT22;1435;49.472;10.940;2023-07-24T04:10:20;18.90;99.90
2855;DHT22;1435;49.472;10.940;2023-07-24T04:15:23;18.90;99.90
2855;DHT22;1435;49.472;10.940;2023-07-24T04:20:25;18.90;99.90
2855;DHT22;1435;49.472;10.940;2023-07-24T04:25:27;18.90;99.90
2855;DHT22;1435;49.472;10.940;2023-07-24T04:30:30;18.90;99.90
2855;DHT22;1435;49.472;10.940;2023-07-24T04:35:32;18.90;99.90
2855;DHT22;1435;49.472;10.940;2023-07-24T04:40:34;18.90;99.90
2855;DHT22;1435;49.472;10.940;2023-07-24T04:45:37;18.90;99.90
2855;DHT22;1435;49.472;10.940;2023-07-24T04:50:39;18.90;99.90
2855;DHT22;1435;49.472;10.940;2023-07-24T04:55:40;18.90;99.90
2855;DHT22;1435;49.472;10.940;2023-07-24T05:00:43;18.90;99.90
2855;DHT22;1435;49.472;10.940;2023-07-24T05:05:48;19.00;99.90
2855;DHT22;1435;49.472;10.940;2023-07-24T05:10:54;19.10;99.90
2855;DHT22;1435;49.472;10.940;2023-07-24T05:15:57;19.10;99.90
2855;DHT22;1435;49.472;10.940;2023-07-24T05:20:59;19.20;99.90
2855;DHT22;1435;49.472;10.940;2023-07-24T05:26:02;19.20;99.90
2855;DHT22;1435;49.472;10.940;2023-07-24T05:31:05;19.20;99.90
2855;DHT22;1435;49.472;10.940;2023-07-24T05:36:08;19.30;99.90
2855;DHT22;1435;49.472;10.940;2023-07-24T05:41:10;19.30;99.90
2855;DHT22;1435;49.472;10.940;2023-07-24T05:46:13;19.30;99.90
2855;DHT22;1435;49.472;10.940;2023-07-24T05:51:14;19.40;99.90
2855;DHT22;1435;49.472;10.940;2023-07-24T05:56:16;19.40;99.90
2855;DHT22;1435;49.472;10.940;2023-07-24T06:01:19;19.40;99.90
2855;DHT22;1435;49.472;10.940;2023-07-24T06:06:21;19.40;99.90
2855;DHT22;1435;49.472;10.940;2023-07-24T06:11:23;19.50;99.90
2855;DHT22;1435;49.472;10.940;2023-07-24T06:16:28;19.50;99.90
2855;DHT22;1435;49.472;10.940;2023-07-24T06:21:29;19.60;99.90
2855;DHT22;1435;49.472;10.940;2023-07-24T06:26:31;19.60;99.90
2855;DHT22;1435;49.472;10.940;2023-07-24T06:31:34;19.60;99.90
2855;DHT22;1435;49.472;10.940;2023-07-24T06:36:36;19.70;99.90
2855;DHT22;1435;49.472;10.940;2023-07-24T06:41:37;19.70;99.90
2855;DHT22;1435;49.472;10.940;2023-07-24T06:46:40;19.80;99.90
2855;DHT22;1435;49.472;10.940;2023-07-24T06:51:42;19.80;99.90
2855;DHT22;1435;49.472;10.940;2023-07-24T06:56:44;19.90;99.90
2855;DHT22;1435;49.472;10.940;2023-07-24T07:01:47;19.90;99.90
2855;DHT22;1435;49.472;10.940;2023-07-24T07:06:48;19.90;99.90
2855;DHT22;1435;49.472;10.940;2023-07-24T07:11:50;20.00;99.90
2855;DHT22;1435;49.472;10.940;2023-07-24T07:16:53;20.00;99.90
2855;DHT22;1435;49.472;10.940;2023-07-24T07:21:55;20.10;99.90
2855;DHT22;1435;49.472;10.940;2023-07-24T07:26:56;20.10;99.90
2855;DHT22;1435;49.472;10.940;2023-07-24T07:31:59;20.20;99.90
2855;DHT22;1435;49.472;10.940;2023-07-24T07:37:01;20.20;99.90
2855;DHT22;1435;49.472;10.940;2023-07-24T07:42:04;20.30;99.90
2855;DHT22;1435;49.472;10.940;2023-07-24T07:47:07;20.30;99.90
2855;DHT22;1435;49.472;10.940;2023-07-24T07:52:09;20.40;99.90
2855;DHT22;1435;49.472;10.940;2023-07-24T07:57:10;20.40;99.90
2855;DHT22;1435;49.472;10.940;2023-07-24T08:02:13;20.50;99.90
2855;DHT22;1435;49.472;10.940;2023-07-24T08:07:15;20.50;99.90
2855;DHT22;1435;49.472;10.940;2023-07-24T08:12:17;20.60;99.90
2855;DHT22;1435;49.472;10.940;2023-07-24T08:17:20;20.60;99.90
2855;DHT22;1435;49.472;10.940;2023-07-24T08:22:22;20.60;99.90
2855;DHT22;1435;49.472;10.940;2023-07-24T08:27:24;20.70;99.90
2855;DHT22;1435;49.472;10.940;2023-07-24T08:32:27;20.70;99.90
2855;DHT22;1435;49.472;10.940;2023-07-24T08:37:28;20.80;99.90
2855;DHT22;1435;49.472;10.940;2023-07-24T08:42:31;20.80;99.90
2855;DHT22;1435;49.472;10.940;2023-07-24T08:47:35;20.90;99.90
2855;DHT22;1435;49.472;10.940;2023-07-24T08:52:37;21.00;99.90
2855;DHT22;1435;49.472;10.940;2023-07-24T08:57:39;21.10;99.90
2855;DHT22;1435;49.472;10.940;2023-07-24T09:02:42;21.20;99.90
2855;DHT22;1435;49.472;10.940;2023-07-24T09:07:44;21.20;99.90
2855;DHT22;1435;49.472;10.940;2023-07-24T09:12:46;21.30;99.90
2855;DHT22;1435;49.472;10.940;2023-07-24T09:17:50;21.40;99.90
2855;DHT22;1435;49.472;10.940;2023-07-24T09:22:53;21.40;99.90
2855;DHT22;1435;49.472;10.940;2023-07-24T09:27:55;21.50;99.90
2855;DHT22;1435;49.472;10.940;2023-07-24T09:32:58;21.60;99.90
2855;DHT22;1435;49.472;10.940;2023-07-24T09:38:05;21.80;99.90
2855;DHT22;1435;49.472;10.940;2023-07-24T09:43:17;22.20;99.90
2855;DHT22;1435;49.472;10.940;2023-07-24T09:48:22;22.10;99.90
2855;DHT22;1435;49.472;10.940;2023-07-24T09:53:31;22.20;99.90
2855;DHT22;1435;49.472;10.940;2023-07-24T09:58:34;22.30;99.90
2855;DHT22;1435;49.472;10.940;2023-07-24T10:03:40;22.30;99.90
2855;DHT22;1435;49.472;10.940;2023-07-24T10:08:42;22.30;99.90
2855;DHT22;1435;49.472;10.940;2023-07-24T10:13:45;22.40;99.90
2855;DHT22;1435;49.472;10.940;2023-07-24T10:18:48;22.40;99.90
2855;DHT22;1435;49.472;10.940;2023-07-24T10:23:50;22.40;99.90
2855;DHT22;1435;49.472;10.940;2023-07-24T10:28:52;22.40;99.90
2855;DHT22;1435;49.472;10.940;2023-07-24T10:33:55;22.40;99.90
2855;DHT22;1435;49.472;10.940;2023-07-24T10:38:57;22.40;99.90
2855;DHT22;1435;49.472;10.940;2023-07-24T10:43:59;22.40;99.90
2855;DHT22;1435;49.472;10.940;2023-07-24T10:49:03;22.50;99.90
2855;DHT22;1435;49.472;10.940;2023-07-24T10:54:05;22.50;99.90
2855;DHT22;1435;49.472;10.940;2023-07-24T10:59:07;22.50;99.90
2855;DHT22;1435;49.472;10.940;2023-07-24T11:04:10;22.50;99.90
2855;DHT22;1435;49.472;10.940;2023-07-24T11:09:13;22.50;99.90
2855;DHT22;1435;49.472;10.940;2023-07-24T11:14:14;22.40;99.90
2855;DHT22;1435;49.472;10.940;2023-07-24T11:19:24;22.40;99.90
2855;DHT22;1435;49.472;10.940;2023-07-24T11:24:26;22.40;99.90
2855;DHT22;1435;49.472;10.940;2023-07-24T11:29:30;22.40;99.90
2855;DHT22;1435;49.472;10.940;2023-07-24T11:34:35;22.50;99.90
2855;DHT22;1435;49.472;10.940;2023-07-24T11:39:36;22.50;99.90
2855;DHT22;1435;49.472;10.940;2023-07-24T11:44:38;22.50;99.90
2855;DHT22;1435;49.472;10.940;2023-07-24T11:49:42;22.60;99.90
2855;DHT22;1435;49.472;10.940;2023-07-24T11:54:55;22.60;99.90
2855;DHT22;1435;49.472;10.940;2023-07-24T11:59:58;22.70;99.90
2855;DHT22;1435;49.472;10.940;2023-07-24T12:05:01;22.60;99.90
2855;DHT22;1435;49.472;10.940;2023-07-24T12:10:05;22.60;99.90
2855;DHT22;1435;49.472;10.940;2023-07-24T12:15:08;22.60;99.90
2855;DHT22;1435;49.472;10.940;2023-07-24T12:20:11;22.60;99.90
2855;DHT22;1435;49.472;10.940;2023-07-24T12:25:13;22.60;99.90
2855;DHT22;1435;49.472;10.940;2023-07-24T12:30:16;22.60;99.90
2855;DHT22;1435;49.472;10.940;2023-07-24T12:35:19;22.60;99.90
2855;DHT22;1435;49.472;10.940;2023-07-24T12:40:21;22.60;99.90
2855;DHT22;1435;49.472;10.940;2023-07-24T12:45:22;22.60;99.90
2855;DHT22;1435;49.472;10.940;2023-07-24T12:50:26;22.60;99.90
2855;DHT22;1435;49.472;10.940;2023-07-24T12:55:27;22.60;99.90
2855;DHT22;1435;49.472;10.940;2023-07-24T13:00:30;22.50;99.90
2855;DHT22;1435;49.472;10.940;2023-07-24T13:05:34;22.50;99.90
2855;DHT22;1435;49.472;10.940;2023-07-24T13:10:35;22.50;99.90
2855;DHT22;1435;49.472;10.940;2023-07-24T13:15:37;22.60;99.90
2855;DHT22;1435;49.472;10.940;2023-07-24T13:20:40;22.60;99.90
2855;DHT22;1435;49.472;10.940;2023-07-24T13:25:42;22.80;99.90
2855;DHT22;1435;49.472;10.940;2023-07-24T13:30:43;22.90;99.90
2855;DHT22;1435;49.472;10.940;2023-07-24T13:35:46;23.00;99.90
2855;DHT22;1435;49.472;10.940;2023-07-24T13:40:48;23.10;99.90
2855;DHT22;1435;49.472;10.940;2023-07-24T13:45:50;23.10;99.90
2855;DHT22;1435;49.472;10.940;2023-07-24T13:50:53;23.20;99.90
2855;DHT22;1435;49.472;10.940;2023-07-24T13:55:55;23.20;99.90
2855;DHT22;1435;49.472;10.940;2023-07-24T14:00:56;23.20;99.90
2855;DHT22;1435;49.472;10.940;2023-07-24T14:05:59;23.20;99.90
2855;DHT22;1435;49.472;10.940;2023-07-24T14:11:02;23.20;99.90
2855;DHT22;1435;49.472;10.940;2023-07-24T14:16:03;23.20;99.90
2855;DHT22;1435;49.472;10.940;2023-07-24T14:21:06;23.30;99.90
2855;DHT22;1435;49.472;10.940;2023-07-24T14:26:08;23.30;99.90
2855;DHT22;1435;49.472;10.940;2023-07-24T14:31:10;23.30;99.90
2855;DHT22;1435;49.472;10.940;2023-07-24T14:36:13;23.40;99.90
2855;DHT22;1435;49.472;10.940;2023-07-24T14:41:15;23.20;99.90
2855;DHT22;1435;49.472;10.940;2023-07-24T14:46:17;23.30;99.90
2855;DHT22;1435;49.472;10.940;2023-07-24T14:51:20;23.30;99.90
2855;DHT22;1435;49.472;10.940;2023-07-24T14:56:21;23.30;99.90
2855;DHT22;1435;49.472;10.940;2023-07-24T15:01:23;23.30;99.90
2855;DHT22;1435;49.472;10.940;2023-07-24T15:06:27;23.40;99.90
2855;DHT22;1435;49.472;10.940;2023-07-24T15:11:29;23.50;99.90
2855;DHT22;1435;49.472;10.940;2023-07-24T15:16:31;23.40;99.90
2855;DHT22;1435;49.472;10.940;2023-07-24T15:21:34;23.40;99.90
2855;DHT22;1435;49.472;10.940;2023-07-24T15:26:35;23.40;99.90
2855;DHT22;1435;49.472;10.940;2023-07-24T15:31:38;23.40;99.90
2855;DHT22;1435;49.472;10.940;2023-07-24T15:36:42;23.30;99.90
2855;DHT22;1435;49.472;10.940;2023-07-24T15:41:44;23.30;99.90
2855;DHT22;1435;49.472;10.940;2023-07-24T15:46:46;23.40;99.90
2855;DHT22;1435;49.472;10.940;2023-07-24T15:51:49;23.30;99.90
2855;DHT22;1435;49.472;10.940;2023-07-24T15:56:51;23.30;99.90
2855;DHT22;1435;49.472;10.940;2023-07-24T16:01:53;23.20;99.90
2855;DHT22;1435;49.472;10.940;2023-07-24T16:06:56;23.20;99.90
2855;DHT22;1435;49.472;10.940;2023-07-24T16:11:58;23.20;99.90
2855;DHT22;1435;49.472;10.940;2023-07-24T16:16:59;23.20;99.90
2855;DHT22;1435;49.472;10.940;2023-07-24T16:22:03;23.30;99.90
2855;DHT22;1435;49.472;10.940;2023-07-24T16:27:06;23.30;99.90
2855;DHT22;1435;49.472;10.940;2023-07-24T16:32:08;23.30;99.90
2855;DHT22;1435;49.472;10.940;2023-07-24T16:37:11;23.50;99.90
2855;DHT22;1435;49.472;10.940;2023-07-24T16:42:13;23.50;99.90
2855;DHT22;1435;49.472;10.940;2023-07-24T16:47:14;23.50;99.90
2855;DHT22;1435;49.472;10.940;2023-07-24T16:52:17;23.70;99.90
2855;DHT22;1435;49.472;10.940;2023-07-24T16:57:19;24.10;99.90
2855;DHT22;1435;49.472;10.940;2023-07-24T17:02:21;24.30;99.90
2855;DHT22;1435;49.472;10.940;2023-07-24T17:07:24;24.30;99.90
2855;DHT22;1435;49.472;10.940;2023-07-24T17:12:26;24.20;99.90
2855;DHT22;1435;49.472;10.940;2023-07-24T17:17:27;24.20;99.90
2855;DHT22;1435;49.472;10.940;2023-07-24T17:22:31;24.10;99.90
2855;DHT22;1435;49.472;10.940;2023-07-24T17:27:32;23.90;99.90
2855;DHT22;1435;49.472;10.940;2023-07-24T17:32:37;23.80;99.90
2855;DHT22;1435;49.472;10.940;2023-07-24T17:37:40;23.70;99.90
2855;DHT22;1435;49.472;10.940;2023-07-24T17:42:41;23.60;99.90
2855;DHT22;1435;49.472;10.940;2023-07-24T17:47:43;23.30;99.90
2855;DHT22;1435;49.472;10.940;2023-07-24T17:52:46;23.20;99.90
2855;DHT22;1435;49.472;10.940;2023-07-24T17:57:48;23.00;99.90
2855;DHT22;1435;49.472;10.940;2023-07-24T18:02:51;22.90;99.90
2855;DHT22;1435;49.472;10.940;2023-07-24T18:07:54;22.80;99.90
2855;DHT22;1435;49.472;10.940;2023-07-24T18:12:56;22.70;99.90
2855;DHT22;1435;49.472;10.940;2023-07-24T18:17:57;22.60;99.90
2855;DHT22;1435;49.472;10.940;2023-07-24T18:23:01;22.60;99.90
2855;DHT22;1435;49.472;10.940;2023-07-24T18:28:03;22.50;99.90
2855;DHT22;1435;49.472;10.940;2023-07-24T18:33:05;22.40;99.90
2855;DHT22;1435;49.472;10.940;2023-07-24T18:38:08;22.40;99.90
2855;DHT22;1435;49.472;10.940;2023-07-24T18:43:10;22.30;99.90
2855;DHT22;1435;49.472;10.940;2023-07-24T18:48:12;22.20;99.90
2855;DHT22;1435;49.472;10.940;2023-07-24T18:53:16;22.20;99.90
2855;DHT22;1435;49.472;10.940;2023-07-24T18:58:18;22.10;99.90
2855;DHT22;1435;49.472;10.940;2023-07-24T19:03:20;22.10;99.90
2855;DHT22;1435;49.472;10.940;2023-07-24T19:08:23;22.10;99.90
2855;DHT22;1435;49.472;10.940;2023-07-24T19:13:24;22.00;99.90
2855;DHT22;1435;49.472;10.940;2023-07-24T19:18:27;21.90;99.90
2855;DHT22;1435;49.472;10.940;2023-07-24T19:23:30;21.90;99.90
2855;DHT22;1435;49.472;10.940;2023-07-24T19:28:32;21.70;99.90
2855;DHT22;1435;49.472;10.940;2023-07-24T19:33:33;21.70;99.90
2855;DHT22;1435;49.472;10.940;2023-07-24T19:38:36;21.70;99.90
2855;DHT22;1435;49.472;10.940;2023-07-24T19:43:38;21.60;99.90
2855;DHT22;1435;49.472;10.940;2023-07-24T19:48:40;21.50;99.90
2855;DHT22;1435;49.472;10.940;2023-07-24T19:53:43;21.50;99.90
2855;DHT22;1435;49.472;10.940;2023-07-24T19:58:44;21.40;99.90
2855;DHT22;1435;49.472;10.940;2023-07-24T20:03:46;21.40;99.90
2855;DHT22;1435;49.472;10.940;2023-07-24T20:08:49;21.30;99.90
2855;DHT22;1435;49.472;10.940;2023-07-24T20:13:51;21.40;99.90
2855;DHT22;1435;49.472;10.940;2023-07-24T20:18:52;21.40;99.90
2855;DHT22;1435;49.472;10.940;2023-07-24T20:24:06;21.40;99.90
2855;DHT22;1435;49.472;10.940;2023-07-24T20:29:08;21.40;99.90
2855;DHT22;1435;49.472;10.940;2023-07-24T20:34:10;21.30;99.90
2855;DHT22;1435;49.472;10.940;2023-07-24T20:39:13;21.30;99.90
2855;DHT22;1435;49.472;10.940;2023-07-24T20:44:17;21.20;99.90
2855;DHT22;1435;49.472;10.940;2023-07-24T20:49:19;21.00;99.90
2855;DHT22;1435;49.472;10.940;2023-07-24T20:54:23;21.00;99.90
2855;DHT22;1435;49.472;10.940;2023-07-24T20:59:24;21.00;99.90
2855;DHT22;1435;49.472;10.940;2023-07-24T21:04:26;21.00;99.90
2855;DHT22;1435;49.472;10.940;2023-07-24T21:09:29;21.00;99.90
2855;DHT22;1435;49.472;10.940;2023-07-24T21:14:31;20.70;99.90
2855;DHT22;1435;49.472;10.940;2023-07-24T21:19:33;20.80;99.90
2855;DHT22;1435;49.472;10.940;2023-07-24T21:24:36;20.80;99.90
2855;DHT22;1435;49.472;10.940;2023-07-24T21:29:37;20.80;99.90
2855;DHT22;1435;49.472;10.940;2023-07-24T21:34:39;20.70;99.90
2855;DHT22;1435;49.472;10.940;2023-07-24T21:39:42;20.80;99.90
2855;DHT22;1435;49.472;10.940;2023-07-24T21:44:44;20.80;99.90
2855;DHT22;1435;49.472;10.940;2023-07-24T21:49:45;20.60;99.90
2855;DHT22;1435;49.472;10.940;2023-07-24T21:54:48;20.60;99.90
2855;DHT22;1435;49.472;10.940;2023-07-24T21:59:50;20.60;99.90
2855;DHT22;1435;49.472;10.940;2023-07-24T22:04:52;20.50;99.90
2855;DHT22;1435;49.472;10.940;2023-07-24T22:09:55;20.40;99.90
2855;DHT22;1435;49.472;10.940;2023-07-24T22:14:57;20.30;99.90
2855;DHT22;1435;49.472;10.940;2023-07-24T22:19:58;20.20;99.90
2855;DHT22;1435;49.472;10.940;2023-07-24T22:25:02;20.20;99.90
2855;DHT22;1435;49.472;10.940;2023-07-24T22:30:05;20.00;99.90
2855;DHT22;1435;49.472;10.940;2023-07-24T22:35:07;20.00;99.90
2855;DHT22;1435;49.472;10.940;2023-07-24T22:40:12;20.00;99.90
2855;DHT22;1435;49.472;10.940;2023-07-24T22:45:14;20.00;99.90
2855;DHT22;1435;49.472;10.940;2023-07-24T22:50:15;19.90;99.90
2855;DHT22;1435;49.472;10.940;2023-07-24T22:55:18;20.00;99.90
2855;DHT22;1435;49.472;10.940;2023-07-24T23:00:20;19.90;99.90
2855;DHT22;1435;49.472;10.940;2023-07-24T23:05:22;19.90;99.90
2855;DHT22;1435;49.472;10.940;2023-07-24T23:10:25;19.80;99.90
2855;DHT22;1435;49.472;10.940;2023-07-24T23:15:27;19.90;99.90
2855;DHT22;1435;49.472;10.940;2023-07-24T23:20:28;19.90;99.90
2855;DHT22;1435;49.472;10.940;2023-07-24T23:25:34;19.90;99.90
2855;DHT22;1435;49.472;10.940;2023-07-24T23:30:38;19.80;99.90
2855;DHT22;1435;49.472;10.940;2023-07-24T23:35:40;19.70;99.90
2855;DHT22;1435;49.472;10.940;2023-07-24T23:40:43;19.70;99.90
2855;DHT22;1435;49.472;10.940;2023-07-24T23:45:45;19.60;99.90
2855;DHT22;1435;49.472;10.940;2023-07-24T23:50:47;19.60;99.90
2855;DHT22;1435;49.472;10.940;2023-07-24T23:55:50;19.50;99.90
